createdAt,value
2018-10-16T00:00:40.870Z,0.00
2018-10-16T00:01:40.861Z,0.00
2018-10-16T00:02:40.855Z,0.00
2018-10-16T00:03:40.847Z,0.00
2018-10-16T00:04:40.838Z,0.00
2018-10-16T00:05:40.832Z,0.00
2018-10-16T00:06:40.822Z,0.00
2018-10-16T00:07:40.814Z,0.00
2018-10-16T00:08:40.806Z,0.00
2018-10-16T00:09:40.799Z,0.00
2018-10-16T00:10:40.789Z,0.00
2018-10-16T00:11:41.031Z,0.00
2018-10-16T00:12:40.773Z,0.00
2018-10-16T00:13:40.764Z,0.00
2018-10-16T00:14:40.757Z,0.00
2018-10-16T00:15:40.751Z,0.00
2018-10-16T00:16:40.740Z,0.00
2018-10-16T00:17:40.733Z,0.00
2018-10-16T00:18:40.723Z,0.00
2018-10-16T00:19:40.716Z,0.00
2018-10-16T00:20:40.708Z,0.00
2018-10-16T00:21:41.150Z,0.00
2018-10-16T00:22:40.692Z,0.00
2018-10-16T00:23:40.683Z,0.00
2018-10-16T00:24:40.676Z,0.00
2018-10-16T00:25:40.666Z,0.00
2018-10-16T00:26:40.660Z,0.00
2018-10-16T00:27:40.650Z,0.00
2018-10-16T00:28:40.643Z,0.00
2018-10-16T00:29:40.636Z,0.00
2018-10-16T00:30:40.626Z,0.00
2018-10-16T00:31:40.618Z,0.00
2018-10-16T00:32:40.707Z,0.00
2018-10-16T00:33:40.601Z,0.00
2018-10-16T00:34:40.592Z,0.00
2018-10-16T00:35:40.585Z,0.00
2018-10-16T00:36:40.577Z,0.00
2018-10-16T00:37:40.617Z,0.00
2018-10-16T00:38:40.560Z,0.00
2018-10-16T00:39:40.551Z,0.00
2018-10-16T00:40:40.543Z,0.00
2018-10-16T00:41:40.533Z,0.00
2018-10-16T00:42:40.527Z,0.00
2018-10-16T00:43:40.518Z,0.00
2018-10-16T00:44:40.517Z,0.00
2018-10-16T00:45:40.502Z,0.00
2018-10-16T00:46:40.493Z,0.00
2018-10-16T00:47:40.485Z,0.00
2018-10-16T00:48:40.477Z,0.00
2018-10-16T00:49:40.467Z,0.00
2018-10-16T00:50:40.460Z,0.00
2018-10-16T00:51:40.452Z,0.00
2018-10-16T00:52:40.444Z,0.00
2018-10-16T00:53:40.434Z,0.00
2018-10-16T00:54:40.446Z,0.00
2018-10-16T00:55:40.419Z,0.00
2018-10-16T00:56:40.411Z,0.00
2018-10-16T00:57:40.401Z,0.00
2018-10-16T00:58:40.396Z,0.00
2018-10-16T00:59:40.386Z,0.00
2018-10-16T01:00:40.388Z,0.00
2018-10-16T01:01:40.368Z,0.00
2018-10-16T01:02:40.411Z,0.00
2018-10-16T01:03:40.352Z,0.00
2018-10-16T01:04:40.344Z,0.00
2018-10-16T01:05:40.337Z,0.00
2018-10-16T01:06:40.327Z,0.00
2018-10-16T01:07:40.319Z,0.00
2018-10-16T01:08:40.311Z,0.00
2018-10-16T01:09:40.303Z,0.00
2018-10-16T01:10:40.299Z,0.00
2018-10-16T01:11:40.288Z,0.00
2018-10-16T01:12:40.528Z,0.00
2018-10-16T01:13:40.274Z,0.00
2018-10-16T01:14:40.263Z,0.00
2018-10-16T01:15:40.259Z,0.00
2018-10-16T01:16:40.245Z,0.00
2018-10-16T01:17:40.238Z,0.00
2018-10-16T01:18:40.231Z,0.00
2018-10-16T01:19:40.220Z,0.00
2018-10-16T01:20:40.212Z,0.00
2018-10-16T01:21:40.203Z,0.00
2018-10-16T01:22:40.195Z,0.00
2018-10-16T01:23:40.188Z,0.00
2018-10-16T01:24:40.177Z,0.00
2018-10-16T01:25:40.170Z,0.00
2018-10-16T01:26:40.161Z,0.00
2018-10-16T01:27:40.152Z,0.00
2018-10-16T01:28:40.144Z,0.00
2018-10-16T01:29:40.135Z,0.00
2018-10-16T01:30:40.129Z,0.00
2018-10-16T01:31:40.118Z,0.00
2018-10-16T01:32:40.110Z,0.00
2018-10-16T01:33:40.102Z,0.00
2018-10-16T01:34:40.093Z,0.00
2018-10-16T01:35:40.085Z,0.00
2018-10-16T01:36:40.077Z,0.00
2018-10-16T01:37:40.069Z,0.00
2018-10-16T01:38:40.060Z,0.00
2018-10-16T01:39:40.054Z,0.00
2018-10-16T01:40:40.044Z,0.00
2018-10-16T01:41:40.034Z,0.00
2018-10-16T01:42:40.029Z,0.00
2018-10-16T01:43:40.267Z,0.00
2018-10-16T01:44:40.011Z,0.00
2018-10-16T01:45:40.048Z,0.00
2018-10-16T01:46:39.995Z,0.00
2018-10-16T01:47:39.985Z,0.00
2018-10-16T01:48:39.975Z,0.00
2018-10-16T01:49:39.971Z,0.00
2018-10-16T01:50:39.959Z,0.00
2018-10-16T01:51:39.951Z,0.00
2018-10-16T01:52:39.943Z,0.00
2018-10-16T01:53:39.936Z,0.00
2018-10-16T01:54:40.726Z,0.00
2018-10-16T01:55:39.917Z,0.00
2018-10-16T01:56:39.910Z,0.00
2018-10-16T01:57:39.900Z,0.00
2018-10-16T01:58:39.892Z,0.00
2018-10-16T01:59:39.884Z,0.00
2018-10-16T02:00:39.876Z,0.00
2018-10-16T02:01:39.866Z,0.00
2018-10-16T02:02:39.931Z,0.00
2018-10-16T02:03:39.850Z,0.00
2018-10-16T02:04:39.842Z,0.00
2018-10-16T02:05:39.883Z,0.00
2018-10-16T02:06:39.824Z,0.00
2018-10-16T02:07:39.816Z,0.00
2018-10-16T02:08:39.807Z,0.00
2018-10-16T02:09:39.798Z,0.00
2018-10-16T02:10:39.790Z,0.00
2018-10-16T02:11:39.783Z,0.00
2018-10-16T02:12:39.773Z,0.00
2018-10-16T02:13:39.763Z,0.00
2018-10-16T02:14:39.759Z,0.00
2018-10-16T02:15:39.747Z,0.00
2018-10-16T02:16:39.737Z,0.00
2018-10-16T02:17:39.728Z,0.00
2018-10-16T02:18:39.720Z,0.00
2018-10-16T02:19:39.712Z,0.00
2018-10-16T02:20:39.706Z,0.00
2018-10-16T02:21:39.693Z,0.00
2018-10-16T02:22:39.685Z,0.00
2018-10-16T02:23:39.676Z,0.00
2018-10-16T02:24:39.667Z,0.00
2018-10-16T02:25:39.658Z,0.00
2018-10-16T02:26:39.649Z,0.00
2018-10-16T02:27:39.642Z,0.00
2018-10-16T02:28:39.631Z,0.00
2018-10-16T02:29:39.623Z,0.00
2018-10-16T02:30:39.614Z,0.00
2018-10-16T02:31:39.606Z,0.00
2018-10-16T02:32:39.598Z,0.00
2018-10-16T02:33:39.588Z,0.00
2018-10-16T02:34:39.581Z,0.00
2018-10-16T02:35:39.571Z,0.00
2018-10-16T02:36:39.565Z,0.00
2018-10-16T02:37:39.554Z,0.00
2018-10-16T02:38:39.593Z,0.00
2018-10-16T02:39:39.536Z,0.00
2018-10-16T02:40:39.527Z,0.00
2018-10-16T02:41:39.518Z,0.00
2018-10-16T02:42:39.510Z,0.00
2018-10-16T02:43:39.501Z,0.00
2018-10-16T02:44:39.493Z,0.00
2018-10-16T02:45:39.483Z,0.00
2018-10-16T02:46:39.475Z,0.00
2018-10-16T02:47:39.466Z,0.00
2018-10-16T02:48:39.458Z,0.00
2018-10-16T02:49:39.447Z,0.00
2018-10-16T02:50:39.440Z,0.00
2018-10-16T02:51:39.430Z,0.00
2018-10-16T02:52:39.424Z,0.00
2018-10-16T02:53:39.413Z,0.00
2018-10-16T02:54:39.405Z,0.00
2018-10-16T02:55:39.397Z,0.00
2018-10-16T02:56:39.388Z,0.00
2018-10-16T02:57:39.380Z,0.00
2018-10-16T02:58:39.370Z,0.00
2018-10-16T02:59:39.363Z,0.00
2018-10-16T03:00:39.356Z,0.00
2018-10-16T03:01:39.345Z,0.00
2018-10-16T03:02:39.336Z,0.00
2018-10-16T03:03:39.328Z,0.00
2018-10-16T03:04:39.326Z,0.00
2018-10-16T03:05:39.310Z,0.00
2018-10-16T03:06:39.300Z,0.00
2018-10-16T03:07:39.293Z,0.00
2018-10-16T03:08:39.288Z,0.00
2018-10-16T03:09:39.279Z,0.00
2018-10-16T03:10:39.268Z,0.00
2018-10-16T03:11:39.258Z,0.00
2018-10-16T03:12:39.249Z,0.00
2018-10-16T03:13:39.240Z,0.00
2018-10-16T03:14:39.232Z,0.00
2018-10-16T03:15:39.231Z,0.00
2018-10-16T03:16:39.214Z,0.00
2018-10-16T03:17:39.204Z,0.00
2018-10-16T03:18:39.197Z,0.00
2018-10-16T03:19:39.188Z,0.00
2018-10-16T03:20:39.297Z,0.00
2018-10-16T03:21:39.169Z,0.00
2018-10-16T03:22:39.161Z,0.00
2018-10-16T03:23:39.153Z,0.00
2018-10-16T03:24:39.145Z,0.00
2018-10-16T03:25:39.135Z,0.00
2018-10-16T03:26:39.127Z,0.00
2018-10-16T03:27:39.117Z,0.00
2018-10-16T03:28:39.110Z,0.00
2018-10-16T03:29:39.101Z,0.00
2018-10-16T03:30:39.094Z,0.00
2018-10-16T03:31:39.088Z,0.00
2018-10-16T03:32:39.079Z,0.00
2018-10-16T03:33:39.066Z,0.00
2018-10-16T03:34:39.059Z,0.00
2018-10-16T03:35:39.052Z,0.00
2018-10-16T03:36:39.040Z,0.00
2018-10-16T03:37:39.032Z,0.00
2018-10-16T03:38:39.024Z,0.00
2018-10-16T03:39:39.015Z,0.00
2018-10-16T03:40:39.008Z,0.00
2018-10-16T03:41:39.000Z,0.00
2018-10-16T03:42:38.989Z,0.00
2018-10-16T03:43:38.981Z,0.00
2018-10-16T03:44:38.972Z,0.00
2018-10-16T03:45:38.963Z,0.00
2018-10-16T03:46:38.958Z,0.00
2018-10-16T03:47:39.045Z,0.00
2018-10-16T03:48:38.938Z,0.00
2018-10-16T03:49:38.929Z,0.00
2018-10-16T03:50:38.920Z,0.00
2018-10-16T03:51:38.916Z,0.00
2018-10-16T03:52:38.906Z,0.00
2018-10-16T03:53:38.898Z,0.00
2018-10-16T03:54:38.884Z,0.00
2018-10-16T03:55:38.880Z,0.00
2018-10-16T03:56:38.869Z,0.00
2018-10-16T03:57:38.859Z,0.00
2018-10-16T03:58:38.851Z,0.00
2018-10-16T03:59:38.842Z,0.00
2018-10-16T04:00:38.833Z,0.00
2018-10-16T04:01:38.825Z,0.00
2018-10-16T04:02:38.816Z,0.00
2018-10-16T04:03:38.807Z,0.00
2018-10-16T04:04:38.800Z,0.00
2018-10-16T04:05:38.789Z,0.00
2018-10-16T04:06:38.807Z,0.00
2018-10-16T04:07:38.772Z,0.00
2018-10-16T04:08:38.765Z,0.00
2018-10-16T04:09:38.753Z,0.00
2018-10-16T04:10:38.744Z,0.00
2018-10-16T04:11:38.737Z,0.00
2018-10-16T04:12:38.729Z,0.00
2018-10-16T04:13:38.725Z,0.00
2018-10-16T04:14:38.714Z,0.00
2018-10-16T04:15:38.704Z,0.00
2018-10-16T04:16:38.693Z,0.00
2018-10-16T04:17:38.689Z,0.00
2018-10-16T04:18:38.676Z,0.00
2018-10-16T04:19:38.666Z,0.00
2018-10-16T04:20:38.658Z,0.00
2018-10-16T04:21:38.651Z,0.00
2018-10-16T04:22:38.680Z,0.00
2018-10-16T04:23:38.632Z,0.00
2018-10-16T04:24:38.623Z,0.00
2018-10-16T04:25:38.618Z,0.00
2018-10-16T04:26:38.604Z,0.00
2018-10-16T04:27:38.623Z,0.00
2018-10-16T04:28:38.589Z,0.00
2018-10-16T04:29:38.582Z,0.00
2018-10-16T04:30:38.571Z,0.00
2018-10-16T04:31:38.562Z,0.00
2018-10-16T04:32:38.552Z,0.00
2018-10-16T04:33:38.544Z,0.00
2018-10-16T04:34:38.537Z,0.00
2018-10-16T04:35:38.527Z,0.00
2018-10-16T04:36:38.517Z,0.00
2018-10-16T04:37:38.511Z,0.00
2018-10-16T04:38:38.501Z,0.00
2018-10-16T04:39:38.492Z,0.00
2018-10-16T04:40:38.484Z,0.00
2018-10-16T04:41:38.554Z,0.00
2018-10-16T04:42:38.464Z,0.00
2018-10-16T04:43:38.486Z,0.00
2018-10-16T04:44:38.448Z,0.00
2018-10-16T04:45:38.439Z,0.00
2018-10-16T04:46:38.431Z,0.00
2018-10-16T04:47:38.421Z,0.00
2018-10-16T04:48:38.413Z,0.00
2018-10-16T04:49:38.403Z,0.00
2018-10-16T04:50:38.395Z,0.00
2018-10-16T04:51:38.387Z,0.00
2018-10-16T04:52:38.378Z,0.00
2018-10-16T04:53:38.368Z,0.00
2018-10-16T04:54:38.361Z,0.00
2018-10-16T04:55:38.351Z,0.00
2018-10-16T04:56:38.343Z,0.00
2018-10-16T04:57:38.333Z,0.00
2018-10-16T04:58:38.328Z,0.00
2018-10-16T04:59:38.316Z,0.00
2018-10-16T05:00:38.307Z,0.00
2018-10-16T05:01:38.300Z,0.00
2018-10-16T05:02:38.289Z,0.00
2018-10-16T05:03:38.281Z,0.00
2018-10-16T05:04:38.272Z,0.00
2018-10-16T05:05:38.263Z,0.00
2018-10-16T05:06:38.254Z,0.00
2018-10-16T05:07:38.245Z,0.00
2018-10-16T05:08:38.237Z,0.00
2018-10-16T05:09:38.227Z,0.00
2018-10-16T05:10:38.219Z,0.00
2018-10-16T05:11:38.210Z,0.00
2018-10-16T05:12:38.202Z,0.00
2018-10-16T05:13:38.192Z,0.00
2018-10-16T05:14:38.183Z,0.00
2018-10-16T05:15:38.177Z,0.00
2018-10-16T05:16:38.169Z,0.00
2018-10-16T05:17:38.160Z,0.00
2018-10-16T05:18:38.148Z,0.00
2018-10-16T05:19:38.139Z,0.00
2018-10-16T05:20:38.131Z,0.00
2018-10-16T05:21:38.121Z,0.00
2018-10-16T05:22:38.115Z,0.00
2018-10-16T05:23:38.104Z,0.00
2018-10-16T05:24:38.095Z,0.00
2018-10-16T05:25:38.085Z,0.00
2018-10-16T05:26:38.098Z,0.00
2018-10-16T05:27:38.068Z,0.00
2018-10-16T05:28:38.060Z,4.00
2018-10-16T05:29:38.052Z,4.00
2018-10-16T05:30:38.041Z,0.00
2018-10-16T05:31:38.272Z,4.00
2018-10-16T05:32:38.024Z,4.00
2018-10-16T05:33:38.015Z,4.00
2018-10-16T05:34:38.005Z,4.00
2018-10-16T05:35:37.999Z,8.00
2018-10-16T05:36:37.988Z,8.00
2018-10-16T05:37:37.979Z,8.00
2018-10-16T05:38:37.973Z,12.00
2018-10-16T05:39:37.964Z,12.00
2018-10-16T05:40:37.953Z,16.00
2018-10-16T05:41:37.944Z,20.00
2018-10-16T05:42:37.935Z,20.00
2018-10-16T05:43:37.928Z,24.00
2018-10-16T05:44:37.918Z,32.00
2018-10-16T05:45:37.910Z,32.00
2018-10-16T05:46:37.904Z,40.00
2018-10-16T05:47:37.891Z,48.00
2018-10-16T05:48:37.883Z,52.00
2018-10-16T05:49:37.873Z,64.00
2018-10-16T05:50:37.865Z,72.00
2018-10-16T05:51:37.856Z,80.00
2018-10-16T05:52:37.852Z,92.00
2018-10-16T05:53:37.842Z,104.00
2018-10-16T05:54:37.831Z,116.00
2018-10-16T05:55:37.821Z,128.00
2018-10-16T05:56:37.813Z,144.00
2018-10-16T05:57:37.804Z,156.00
2018-10-16T05:58:37.798Z,172.00
2018-10-16T05:59:37.786Z,192.00
2018-10-16T06:00:37.781Z,208.00
2018-10-16T06:01:37.773Z,228.00
2018-10-16T06:02:37.762Z,248.00
2018-10-16T06:03:37.751Z,264.00
2018-10-16T06:04:37.744Z,288.00
2018-10-16T06:05:37.826Z,304.00
2018-10-16T06:06:37.725Z,324.00
2018-10-16T06:07:37.716Z,344.00
2018-10-16T06:08:37.707Z,360.00
2018-10-16T06:09:37.697Z,380.00
2018-10-16T06:10:37.755Z,404.00
2018-10-16T06:11:37.680Z,420.00
2018-10-16T06:12:37.674Z,440.00
2018-10-16T06:13:37.666Z,460.00
2018-10-16T06:14:37.658Z,480.00
2018-10-16T06:15:37.645Z,500.00
2018-10-16T06:16:37.640Z,516.00
2018-10-16T06:17:37.627Z,536.00
2018-10-16T06:18:37.623Z,552.00
2018-10-16T06:19:37.610Z,580.00
2018-10-16T06:20:37.601Z,600.00
2018-10-16T06:21:37.591Z,632.00
2018-10-16T06:22:37.583Z,660.00
2018-10-16T06:23:37.575Z,692.00
2018-10-16T06:24:37.648Z,712.00
2018-10-16T06:25:37.556Z,736.00
2018-10-16T06:26:37.614Z,760.00
2018-10-16T06:27:37.557Z,796.00
2018-10-16T06:28:37.535Z,836.00
2018-10-16T06:29:37.524Z,880.00
2018-10-16T06:30:37.514Z,920.00
2018-10-16T06:31:37.504Z,948.00
2018-10-16T06:32:37.495Z,984.00
2018-10-16T06:33:37.487Z,1024.00
2018-10-16T06:34:37.479Z,1068.00
2018-10-16T06:35:37.469Z,1108.00
2018-10-16T06:36:37.463Z,1148.00
2018-10-16T06:37:37.451Z,1184.00
2018-10-16T06:38:37.445Z,1232.00
2018-10-16T06:39:37.436Z,1284.00
2018-10-16T06:40:37.458Z,1348.00
2018-10-16T06:41:37.515Z,1404.00
2018-10-16T06:42:37.409Z,1448.00
2018-10-16T06:43:37.401Z,1492.00
2018-10-16T06:44:37.420Z,1532.00
2018-10-16T06:45:37.385Z,1568.00
2018-10-16T06:46:37.486Z,1604.00
2018-10-16T06:47:37.432Z,1632.00
2018-10-16T06:48:37.963Z,1668.00
2018-10-16T06:49:37.349Z,1712.00
2018-10-16T06:50:37.343Z,1768.00
2018-10-16T06:51:37.335Z,1832.00
2018-10-16T06:52:37.324Z,1932.00
2018-10-16T06:53:37.322Z,2084.00
2018-10-16T06:54:37.333Z,2232.00
2018-10-16T06:55:37.300Z,2492.00
2018-10-16T06:56:37.290Z,2844.00
2018-10-16T06:57:37.282Z,3084.00
2018-10-16T06:58:37.274Z,3276.00
2018-10-16T06:59:37.265Z,3456.00
2018-10-16T07:00:37.270Z,3632.00
2018-10-16T07:01:37.252Z,3784.00
2018-10-16T07:02:37.244Z,3900.00
2018-10-16T07:03:37.234Z,4004.00
2018-10-16T07:04:37.226Z,4096.00
2018-10-16T07:05:37.215Z,4184.00
2018-10-16T07:06:37.254Z,4276.00
2018-10-16T07:07:37.204Z,4360.00
2018-10-16T07:08:37.193Z,4428.00
2018-10-16T07:09:37.189Z,4508.00
2018-10-16T07:10:37.181Z,4608.00
2018-10-16T07:11:37.176Z,4724.00
2018-10-16T07:12:37.164Z,4876.00
2018-10-16T07:13:37.156Z,5044.00
2018-10-16T07:14:37.148Z,5212.00
2018-10-16T07:15:37.141Z,5408.00
2018-10-16T07:16:37.132Z,5612.00
2018-10-16T07:17:37.123Z,5792.00
2018-10-16T07:18:37.116Z,5920.00
2018-10-16T07:19:37.108Z,6072.00
2018-10-16T07:20:37.106Z,6336.00
2018-10-16T07:21:37.138Z,6528.00
2018-10-16T07:22:37.094Z,6484.00
2018-10-16T07:24:37.075Z,6676.00
2018-10-16T07:25:37.074Z,7244.00
2018-10-16T07:26:37.061Z,7504.00
2018-10-16T07:27:37.055Z,7580.00
2018-10-16T07:28:37.048Z,7596.00
2018-10-16T07:29:37.042Z,7572.00
2018-10-16T07:30:37.040Z,7556.00
2018-10-16T07:31:37.033Z,7512.00
2018-10-16T07:32:37.027Z,7464.00
2018-10-16T07:33:37.021Z,7368.00
2018-10-16T07:34:37.020Z,7304.00
2018-10-16T07:35:37.013Z,7292.00
2018-10-16T07:36:37.074Z,7288.00
2018-10-16T07:37:37.032Z,7308.00
2018-10-16T07:38:37.041Z,7392.00
2018-10-16T07:39:37.002Z,7500.00
2018-10-16T07:40:37.002Z,7632.00
2018-10-16T07:41:36.997Z,7704.00
2018-10-16T07:42:36.995Z,7828.00
2018-10-16T07:43:37.000Z,7960.00
2018-10-16T07:44:36.993Z,8044.00
2018-10-16T07:45:36.994Z,8032.00
2018-10-16T07:46:36.990Z,8008.00
2018-10-16T07:47:36.989Z,7996.00
2018-10-16T07:48:37.125Z,7992.00
2018-10-16T07:49:36.991Z,7956.00
2018-10-16T07:50:36.988Z,7448.00
2018-10-16T07:51:36.991Z,7172.00
2018-10-16T07:52:36.989Z,6716.00
2018-10-16T07:53:36.988Z,7984.00
2018-10-16T07:54:36.995Z,7376.00
2018-10-16T07:55:36.992Z,7796.00
2018-10-16T07:56:36.991Z,7756.00
2018-10-16T07:57:36.991Z,5036.00
2018-10-16T07:58:36.991Z,7028.00
2018-10-16T07:59:36.996Z,6724.00
2018-10-16T08:00:36.994Z,6092.00
2018-10-16T08:01:36.993Z,8244.00
2018-10-16T08:02:36.995Z,8376.00
2018-10-16T08:03:36.994Z,8368.00
2018-10-16T08:04:36.995Z,8400.00
2018-10-16T08:05:37.000Z,8428.00
2018-10-16T08:06:36.999Z,8484.00
2018-10-16T08:07:37.000Z,8568.00
2018-10-16T08:08:37.002Z,8684.00
2018-10-16T08:09:37.007Z,8740.00
2018-10-16T08:10:37.005Z,8740.00
2018-10-16T08:11:37.007Z,8740.00
2018-10-16T08:12:37.010Z,8740.00
2018-10-16T08:13:37.017Z,8772.00
2018-10-16T08:14:37.014Z,8816.00
2018-10-16T08:15:37.017Z,8820.00
2018-10-16T08:16:37.021Z,8844.00
2018-10-16T08:17:37.022Z,8912.00
2018-10-16T08:18:37.025Z,8952.00
2018-10-16T08:19:37.029Z,8972.00
2018-10-16T08:20:37.032Z,9032.00
2018-10-16T08:21:37.035Z,9100.00
2018-10-16T08:22:37.039Z,9100.00
2018-10-16T08:23:37.043Z,9060.00
2018-10-16T08:24:37.047Z,9240.00
2018-10-16T08:25:37.049Z,9312.00
2018-10-16T08:26:37.054Z,9352.00
2018-10-16T08:27:37.060Z,9404.00
2018-10-16T08:28:37.065Z,9468.00
2018-10-16T08:29:37.065Z,9476.00
2018-10-16T08:30:37.165Z,9624.00
2018-10-16T08:31:37.078Z,9704.00
2018-10-16T08:32:37.078Z,9752.00
2018-10-16T08:33:37.083Z,9752.00
2018-10-16T08:34:37.087Z,9760.00
2018-10-16T08:35:37.296Z,9792.00
2018-10-16T08:36:37.210Z,9836.00
2018-10-16T08:37:37.102Z,9848.00
2018-10-16T08:38:37.110Z,9920.00
2018-10-16T08:39:37.125Z,9988.00
2018-10-16T08:40:37.118Z,9972.00
2018-10-16T08:41:37.127Z,10048.00
2018-10-16T08:42:37.130Z,10112.00
2018-10-16T08:43:37.136Z,10124.00
2018-10-16T08:44:37.145Z,10192.00
2018-10-16T08:45:37.150Z,10200.00
2018-10-16T08:46:37.152Z,10256.00
2018-10-16T08:47:37.261Z,10224.00
2018-10-16T08:48:37.367Z,7472.00
2018-10-16T08:49:37.175Z,8124.00
2018-10-16T08:50:37.181Z,7788.00
2018-10-16T08:51:37.184Z,9920.00
2018-10-16T08:52:37.192Z,10448.00
2018-10-16T08:53:37.196Z,9928.00
2018-10-16T08:54:37.205Z,10784.00
2018-10-16T08:55:37.207Z,10656.00
2018-10-16T08:56:37.214Z,8812.00
2018-10-16T08:57:37.220Z,9252.00
2018-10-16T08:58:37.230Z,9732.00
2018-10-16T08:59:37.240Z,11236.00
2018-10-16T09:00:37.241Z,10868.00
2018-10-16T09:01:37.246Z,10964.00
2018-10-16T09:02:37.252Z,11528.00
2018-10-16T09:03:37.258Z,11868.00
2018-10-16T09:04:37.264Z,11680.00
2018-10-16T09:05:37.271Z,10008.00
2018-10-16T09:06:37.359Z,11172.00
2018-10-16T09:07:37.284Z,12048.00
2018-10-16T09:08:37.292Z,12764.00
2018-10-16T09:09:37.300Z,12908.00
2018-10-16T09:10:37.310Z,13020.00
2018-10-16T09:11:37.317Z,13224.00
2018-10-16T09:12:37.325Z,13380.00
2018-10-16T09:13:37.328Z,12644.00
2018-10-16T09:14:37.426Z,13372.00
2018-10-16T09:15:37.344Z,12740.00
2018-10-16T09:16:37.356Z,13468.00
2018-10-16T09:17:37.360Z,14048.00
2018-10-16T09:18:37.369Z,14048.00
2018-10-16T09:19:37.381Z,13984.00
2018-10-16T09:20:37.387Z,13888.00
2018-10-16T09:21:37.398Z,13312.00
2018-10-16T09:22:37.404Z,11648.00
2018-10-16T09:23:37.414Z,7244.00
2018-10-16T09:24:37.444Z,8164.00
2018-10-16T09:25:37.434Z,9556.00
2018-10-16T09:26:37.440Z,11716.00
2018-10-16T09:27:37.447Z,13512.00
2018-10-16T09:28:37.465Z,11588.00
2018-10-16T09:29:37.463Z,15392.00
2018-10-16T09:30:37.495Z,15808.00
2018-10-16T09:31:37.478Z,15840.00
2018-10-16T09:32:37.491Z,15776.00
2018-10-16T09:33:37.497Z,15552.00
2018-10-16T09:34:37.503Z,14752.00
2018-10-16T09:35:37.517Z,12932.00
2018-10-16T09:36:37.523Z,13760.00
2018-10-16T09:37:37.604Z,11084.00
2018-10-16T09:38:37.540Z,8184.00
2018-10-16T09:39:37.549Z,7556.00
2018-10-16T09:40:37.558Z,5976.00
2018-10-16T09:41:37.567Z,5868.00
2018-10-16T09:42:37.572Z,6272.00
2018-10-16T09:43:37.579Z,5840.00
2018-10-16T09:44:37.587Z,7284.00
2018-10-16T09:45:37.593Z,9736.00
2018-10-16T09:46:37.604Z,8616.00
2018-10-16T09:47:37.609Z,5424.00
2018-10-16T09:48:37.613Z,6036.00
2018-10-16T09:49:37.671Z,9420.00
2018-10-16T09:50:37.626Z,12272.00
2018-10-16T09:51:37.632Z,7604.00
2018-10-16T09:52:37.636Z,14816.00
2018-10-16T09:53:37.643Z,15040.00
2018-10-16T09:54:37.652Z,15296.00
2018-10-16T09:55:37.655Z,15104.00
2018-10-16T09:57:37.668Z,16448.00
2018-10-16T09:58:37.677Z,16928.00
2018-10-16T09:59:37.687Z,17536.00
2018-10-16T10:00:37.730Z,18112.00
2018-10-16T10:01:37.702Z,18432.00
2018-10-16T10:02:37.712Z,16064.00
2018-10-16T10:03:37.721Z,17056.00
2018-10-16T10:04:37.733Z,20288.00
2018-10-16T10:05:37.739Z,20320.00
2018-10-16T10:06:37.749Z,17344.00
2018-10-16T10:07:37.762Z,16480.00
2018-10-16T10:08:37.779Z,15648.00
2018-10-16T10:09:37.780Z,15680.00
2018-10-16T10:10:37.789Z,17632.00
2018-10-16T10:11:37.803Z,19200.00
2018-10-16T10:12:37.813Z,16416.00
2018-10-16T10:14:37.830Z,15488.00
2018-10-16T10:15:37.839Z,14236.00
2018-10-16T10:16:37.852Z,14164.00
2018-10-16T10:17:37.857Z,16096.00
2018-10-16T10:18:37.866Z,16224.00
2018-10-16T10:19:37.878Z,17728.00
2018-10-16T10:20:37.892Z,19040.00
2018-10-16T10:21:37.894Z,17664.00
2018-10-16T10:22:37.903Z,17376.00
2018-10-16T10:23:37.964Z,17952.00
2018-10-16T10:24:38.131Z,17536.00
2018-10-16T10:25:37.933Z,16480.00
2018-10-16T10:26:37.943Z,17632.00
2018-10-16T10:27:37.956Z,17600.00
2018-10-16T10:28:37.968Z,13636.00
2018-10-16T10:29:38.033Z,14316.00
2018-10-16T10:30:37.985Z,16928.00
2018-10-16T10:31:37.994Z,16384.00
2018-10-16T10:32:38.006Z,16032.00
2018-10-16T10:33:38.019Z,11636.00
2018-10-16T10:34:38.028Z,9100.00
2018-10-16T10:35:38.094Z,9064.00
2018-10-16T10:36:38.048Z,7780.00
2018-10-16T10:37:38.061Z,7552.00
2018-10-16T10:38:38.067Z,7440.00
2018-10-16T10:39:38.077Z,7292.00
2018-10-16T10:40:38.085Z,7688.00
2018-10-16T10:41:38.093Z,14016.00
2018-10-16T10:42:38.102Z,13920.00
2018-10-16T10:43:38.112Z,13644.00
2018-10-16T10:44:38.118Z,13304.00
2018-10-16T10:45:38.126Z,14016.00
2018-10-16T10:46:38.136Z,13376.00
2018-10-16T10:47:38.143Z,13824.00
2018-10-16T10:48:38.157Z,13856.00
2018-10-16T10:49:38.165Z,13856.00
2018-10-16T10:50:38.436Z,8136.00
2018-10-16T10:51:38.527Z,9332.00
2018-10-16T10:52:38.193Z,8696.00
2018-10-16T10:53:38.202Z,11964.00
2018-10-16T10:54:38.209Z,14240.00
2018-10-16T10:55:38.219Z,14176.00
2018-10-16T10:56:38.299Z,14560.00
2018-10-16T10:57:38.240Z,14912.00
2018-10-16T10:58:38.245Z,14784.00
2018-10-16T10:59:38.255Z,15392.00
2018-10-16T11:00:38.268Z,15584.00
2018-10-16T11:01:38.273Z,15648.00
2018-10-16T11:02:38.286Z,14848.00
2018-10-16T11:03:38.498Z,10784.00
2018-10-16T11:04:38.308Z,11544.00
2018-10-16T11:05:38.312Z,13668.00
2018-10-16T11:06:38.321Z,10164.00
2018-10-16T11:07:38.332Z,10616.00
2018-10-16T11:08:38.339Z,9836.00
2018-10-16T11:09:38.348Z,9996.00
2018-10-16T11:10:38.354Z,10452.00
2018-10-16T11:11:38.368Z,15488.00
2018-10-16T11:12:38.370Z,10948.00
2018-10-16T11:13:38.376Z,11652.00
2018-10-16T11:14:38.383Z,14944.00
2018-10-16T11:15:38.392Z,15456.00
2018-10-16T11:16:38.401Z,15008.00
2018-10-16T11:17:38.406Z,12884.00
2018-10-16T11:18:38.415Z,11080.00
2018-10-16T11:19:38.423Z,11356.00
2018-10-16T11:20:38.431Z,13136.00
2018-10-16T11:21:38.435Z,11496.00
2018-10-16T11:22:38.451Z,13660.00
2018-10-16T11:23:38.449Z,11044.00
2018-10-16T11:24:38.459Z,10840.00
2018-10-16T11:25:38.462Z,10784.00
2018-10-16T11:26:38.474Z,11588.00
2018-10-16T11:27:38.520Z,10440.00
2018-10-16T11:28:38.485Z,10244.00
2018-10-16T11:29:38.493Z,10232.00
2018-10-16T11:30:38.497Z,10296.00
2018-10-16T11:31:38.501Z,9864.00
2018-10-16T11:32:38.506Z,9716.00
2018-10-16T11:33:38.509Z,9592.00
2018-10-16T11:34:38.515Z,9548.00
2018-10-16T11:35:38.522Z,9244.00
2018-10-16T11:36:38.524Z,9896.00
2018-10-16T11:37:38.530Z,9048.00
2018-10-16T11:38:38.533Z,8744.00
2018-10-16T11:39:38.537Z,9680.00
2018-10-16T11:40:38.542Z,8552.00
2018-10-16T11:41:38.548Z,8328.00
2018-10-16T11:42:38.557Z,8080.00
2018-10-16T11:43:38.553Z,8104.00
2018-10-16T11:44:38.558Z,8168.00
2018-10-16T11:45:38.590Z,8052.00
2018-10-16T11:46:38.564Z,7804.00
2018-10-16T11:47:38.568Z,8016.00
2018-10-16T11:48:38.672Z,8508.00
2018-10-16T11:49:38.577Z,11340.00
2018-10-16T11:50:38.581Z,10604.00
2018-10-16T11:51:38.580Z,8216.00
2018-10-16T11:52:38.586Z,8136.00
2018-10-16T11:53:38.591Z,8452.00
2018-10-16T11:54:38.590Z,8348.00
2018-10-16T11:55:38.593Z,8732.00
2018-10-16T11:56:38.596Z,9388.00
2018-10-16T11:57:38.600Z,10416.00
2018-10-16T11:58:38.603Z,12992.00
2018-10-16T11:59:38.604Z,11704.00
2018-10-16T12:00:38.608Z,8880.00
2018-10-16T12:01:38.610Z,12456.00
2018-10-16T12:02:38.720Z,12332.00
2018-10-16T12:03:38.620Z,8772.00
2018-10-16T12:04:38.622Z,11852.00
2018-10-16T12:05:38.625Z,11984.00
2018-10-16T12:06:38.834Z,12276.00
2018-10-16T12:07:38.632Z,8996.00
2018-10-16T12:08:38.636Z,8892.00
2018-10-16T12:09:38.639Z,10296.00
2018-10-16T12:10:38.721Z,8448.00
2018-10-16T12:11:38.648Z,8716.00
2018-10-16T12:12:38.649Z,8816.00
2018-10-16T12:13:38.651Z,9656.00
2018-10-16T12:14:38.657Z,10764.00
2018-10-16T12:15:38.661Z,11712.00
2018-10-16T12:16:38.714Z,10280.00
2018-10-16T12:17:38.664Z,11912.00
2018-10-16T12:18:38.920Z,8936.00
2018-10-16T12:19:38.767Z,8724.00
2018-10-16T12:20:38.679Z,8796.00
2018-10-16T12:21:38.680Z,8920.00
2018-10-16T12:22:38.684Z,9408.00
2018-10-16T12:24:38.691Z,13344.00
2018-10-16T12:25:38.694Z,12376.00
2018-10-16T12:26:38.700Z,9952.00
2018-10-16T12:27:38.703Z,10132.00
2018-10-16T12:28:38.705Z,10508.00
2018-10-16T12:29:38.708Z,13656.00
2018-10-16T12:30:38.718Z,10416.00
2018-10-16T12:31:38.716Z,10320.00
2018-10-16T12:32:38.720Z,10488.00
2018-10-16T12:33:38.723Z,10052.00
2018-10-16T12:34:38.728Z,9848.00
2018-10-16T12:35:38.730Z,9768.00
2018-10-16T12:36:38.737Z,9916.00
2018-10-16T12:37:38.743Z,9900.00